Decoded Metar for KRKP (ROCKPORT in TX, USA) (IATA:RKP) | Meteo·Mobile Aviation Weather
aviador You're here:

KRKP Decoded Metar

ROCKPORT in TX, USA
Report Time2019-02-16 07:58:00
UTC Time2019-02-16 08:11:16
Flight Rules lifr LIFR
Wind190° at 09 Gusting to 14 kt
W.Decomp.*RWY 18: 9.0 kt HW 0.6 kt RCW
RWY 14: 6.5 kt HW 6.3 kt RCW
W.Rank190° ranks 17
Current wind is above 190° avg. (5.8)
Visibility4023 m
Phenomena:Mist
Clouds:Overcast 004 Hf
Ceiling400 ft
Temp19°C (ISA +4)
Dew Point19°C (100% RH)
QNH1008 hPa
Density Alt955 ft
Elevation20 ft
Report Wrong Elevation
Raw Report
KRKP 160758Z AUTO 19009G14KT 2 1/2SM BR OVC004 19/19 A2976 RMK AO2
T01890189=

Extra information for KRKP:More info

Metar Taf Metar & Taf Last 4 Metars F.Rules Stats Wind Profile Meteogram Temp Stats Airport Information Weather charts Add Link Nearby VenuesMetar ALERT Operation Metar Decoded Social comments

AIRNAV info for KRKP